sensor_id;sensor_type;location;lat;lon;timestamp;P1;durP1;ratioP1;P2;durP2;ratioP2
32094;SDS011;18608;53.688;10.748;2022-08-14T00:00:13;3.17;;;2.97;;
32094;SDS011;18608;53.688;10.748;2022-08-14T00:02:42;3.80;;;3.50;;
32094;SDS011;18608;53.688;10.748;2022-08-14T00:05:09;5.97;;;3.47;;
32094;SDS011;18608;53.688;10.748;2022-08-14T00:07:38;6.93;;;3.87;;
32094;SDS011;18608;53.688;10.748;2022-08-14T00:10:05;3.70;;;3.40;;
32094;SDS011;18608;53.688;10.748;2022-08-14T00:12:35;3.97;;;3.67;;
32094;SDS011;18608;53.688;10.748;2022-08-14T00:15:04;3.60;;;3.33;;
32094;SDS011;18608;53.688;10.748;2022-08-14T00:17:36;8.33;;;3.60;;
32094;SDS011;18608;53.688;10.748;2022-08-14T00:20:03;7.67;;;3.40;;
32094;SDS011;18608;53.688;10.748;2022-08-14T00:22:29;3.50;;;3.10;;
32094;SDS011;18608;53.688;10.748;2022-08-14T00:24:55;4.40;;;3.63;;
32094;SDS011;18608;53.688;10.748;2022-08-14T00:27:21;4.70;;;3.90;;
32094;SDS011;18608;53.688;10.748;2022-08-14T00:29:47;4.60;;;3.60;;
32094;SDS011;18608;53.688;10.748;2022-08-14T00:32:12;4.70;;;3.10;;
32094;SDS011;18608;53.688;10.748;2022-08-14T00:34:38;5.60;;;3.77;;
32094;SDS011;18608;53.688;10.748;2022-08-14T00:37:03;3.97;;;3.40;;
32094;SDS011;18608;53.688;10.748;2022-08-14T00:39:29;4.63;;;3.50;;
32094;SDS011;18608;53.688;10.748;2022-08-14T00:41:56;4.07;;;3.77;;
32094;SDS011;18608;53.688;10.748;2022-08-14T00:44:22;4.33;;;4.03;;
32094;SDS011;18608;53.688;10.748;2022-08-14T00:46:47;6.70;;;4.17;;
32094;SDS011;18608;53.688;10.748;2022-08-14T00:49:13;4.03;;;3.73;;
32094;SDS011;18608;53.688;10.748;2022-08-14T00:51:39;3.87;;;3.57;;
32094;SDS011;18608;53.688;10.748;2022-08-14T00:54:08;4.77;;;3.90;;
32094;SDS011;18608;53.688;10.748;2022-08-14T00:56:34;4.03;;;3.73;;
32094;SDS011;18608;53.688;10.748;2022-08-14T00:59:01;3.70;;;3.40;;
32094;SDS011;18608;53.688;10.748;2022-08-14T01:01:27;6.10;;;3.70;;
32094;SDS011;18608;53.688;10.748;2022-08-14T01:03:53;4.07;;;3.67;;
32094;SDS011;18608;53.688;10.748;2022-08-14T01:06:21;4.20;;;3.50;;
32094;SDS011;18608;53.688;10.748;2022-08-14T01:08:48;8.50;;;3.47;;
32094;SDS011;18608;53.688;10.748;2022-08-14T01:11:14;4.80;;;4.23;;
32094;SDS011;18608;53.688;10.748;2022-08-14T01:13:40;6.13;;;3.13;;
32094;SDS011;18608;53.688;10.748;2022-08-14T01:16:08;12.90;;;3.80;;
32094;SDS011;18608;53.688;10.748;2022-08-14T01:18:39;8.10;;;4.00;;
32094;SDS011;18608;53.688;10.748;2022-08-14T01:21:24;6.53;;;3.90;;
32094;SDS011;18608;53.688;10.748;2022-08-14T01:24:09;4.23;;;3.57;;
32094;SDS011;18608;53.688;10.748;2022-08-14T01:26:39;5.30;;;3.63;;
32094;SDS011;18608;53.688;10.748;2022-08-14T01:29:05;5.80;;;3.63;;
32094;SDS011;18608;53.688;10.748;2022-08-14T01:31:32;3.40;;;3.17;;
32094;SDS011;18608;53.688;10.748;2022-08-14T01:34:06;5.07;;;4.57;;
32094;SDS011;18608;53.688;10.748;2022-08-14T01:36:32;6.03;;;3.63;;
32094;SDS011;18608;53.688;10.748;2022-08-14T01:39:03;8.23;;;3.77;;
32094;SDS011;18608;53.688;10.748;2022-08-14T01:41:36;3.73;;;3.43;;
32094;SDS011;18608;53.688;10.748;2022-08-14T01:44:04;6.60;;;4.37;;
32094;SDS011;18608;53.688;10.748;2022-08-14T01:46:35;5.33;;;3.97;;
32094;SDS011;18608;53.688;10.748;2022-08-14T01:49:04;6.73;;;3.57;;
32094;SDS011;18608;53.688;10.748;2022-08-14T01:51:42;11.30;;;3.70;;
32094;SDS011;18608;53.688;10.748;2022-08-14T01:54:09;4.10;;;3.80;;
32094;SDS011;18608;53.688;10.748;2022-08-14T01:56:37;5.20;;;4.30;;
32094;SDS011;18608;53.688;10.748;2022-08-14T01:59:26;6.77;;;3.83;;
32094;SDS011;18608;53.688;10.748;2022-08-14T02:01:55;8.00;;;4.03;;
32094;SDS011;18608;53.688;10.748;2022-08-14T02:04:24;4.20;;;3.90;;
32094;SDS011;18608;53.688;10.748;2022-08-14T02:06:51;3.97;;;3.40;;
32094;SDS011;18608;53.688;10.748;2022-08-14T02:09:18;6.17;;;4.00;;
32094;SDS011;18608;53.688;10.748;2022-08-14T02:11:45;4.87;;;3.40;;
32094;SDS011;18608;53.688;10.748;2022-08-14T02:14:12;6.20;;;3.73;;
32094;SDS011;18608;53.688;10.748;2022-08-14T02:16:43;5.00;;;4.37;;
32094;SDS011;18608;53.688;10.748;2022-08-14T02:19:15;4.40;;;3.67;;
32094;SDS011;18608;53.688;10.748;2022-08-14T02:21:43;4.87;;;4.37;;
32094;SDS011;18608;53.688;10.748;2022-08-14T02:24:10;4.60;;;4.20;;
32094;SDS011;18608;53.688;10.748;2022-08-14T02:26:39;6.37;;;4.70;;
32094;SDS011;18608;53.688;10.748;2022-08-14T02:29:07;8.43;;;3.93;;
32094;SDS011;18608;53.688;10.748;2022-08-14T02:31:36;3.97;;;3.67;;
32094;SDS011;18608;53.688;10.748;2022-08-14T02:34:14;5.07;;;4.20;;
32094;SDS011;18608;53.688;10.748;2022-08-14T02:36:43;5.07;;;3.67;;
32094;SDS011;18608;53.688;10.748;2022-08-14T02:39:11;4.33;;;4.00;;
32094;SDS011;18608;53.688;10.748;2022-08-14T02:41:38;7.20;;;4.83;;
32094;SDS011;18608;53.688;10.748;2022-08-14T02:44:05;5.13;;;4.60;;
32094;SDS011;18608;53.688;10.748;2022-08-14T02:46:33;6.00;;;4.70;;
32094;SDS011;18608;53.688;10.748;2022-08-14T02:48:59;5.20;;;4.70;;
32094;SDS011;18608;53.688;10.748;2022-08-14T02:51:26;9.10;;;4.37;;
32094;SDS011;18608;53.688;10.748;2022-08-14T02:53:53;7.10;;;4.60;;
32094;SDS011;18608;53.688;10.748;2022-08-14T02:56:20;7.83;;;4.67;;
32094;SDS011;18608;53.688;10.748;2022-08-14T02:58:47;6.87;;;4.50;;
32094;SDS011;18608;53.688;10.748;2022-08-14T03:01:15;8.23;;;4.40;;
32094;SDS011;18608;53.688;10.748;2022-08-14T03:03:42;6.93;;;4.73;;
32094;SDS011;18608;53.688;10.748;2022-08-14T03:06:09;5.80;;;4.97;;
32094;SDS011;18608;53.688;10.748;2022-08-14T03:08:36;6.73;;;4.30;;
32094;SDS011;18608;53.688;10.748;2022-08-14T03:11:03;5.63;;;4.60;;
32094;SDS011;18608;53.688;10.748;2022-08-14T03:13:34;5.70;;;4.73;;
32094;SDS011;18608;53.688;10.748;2022-08-14T03:16:02;7.83;;;5.57;;
32094;SDS011;18608;53.688;10.748;2022-08-14T03:18:29;5.90;;;5.30;;
32094;SDS011;18608;53.688;10.748;2022-08-14T03:20:55;5.37;;;4.80;;
32094;SDS011;18608;53.688;10.748;2022-08-14T03:23:20;5.27;;;4.77;;
32094;SDS011;18608;53.688;10.748;2022-08-14T03:25:46;7.57;;;5.30;;
32094;SDS011;18608;53.688;10.748;2022-08-14T03:28:12;5.57;;;5.10;;
32094;SDS011;18608;53.688;10.748;2022-08-14T03:30:39;4.90;;;4.50;;
32094;SDS011;18608;53.688;10.748;2022-08-14T03:33:05;7.70;;;5.10;;
32094;SDS011;18608;53.688;10.748;2022-08-14T03:35:32;12.30;;;4.93;;
32094;SDS011;18608;53.688;10.748;2022-08-14T03:38:05;13.33;;;6.20;;
32094;SDS011;18608;53.688;10.748;2022-08-14T03:40:36;6.00;;;5.23;;
32094;SDS011;18608;53.688;10.748;2022-08-14T03:43:06;6.50;;;5.90;;
32094;SDS011;18608;53.688;10.748;2022-08-14T03:45:33;6.60;;;6.00;;
32094;SDS011;18608;53.688;10.748;2022-08-14T03:48:01;10.60;;;5.87;;
32094;SDS011;18608;53.688;10.748;2022-08-14T03:50:28;13.60;;;5.37;;
32094;SDS011;18608;53.688;10.748;2022-08-14T03:52:56;6.00;;;5.50;;
32094;SDS011;18608;53.688;10.748;2022-08-14T03:55:23;10.73;;;5.80;;
32094;SDS011;18608;53.688;10.748;2022-08-14T03:57:49;13.30;;;5.57;;
32094;SDS011;18608;53.688;10.748;2022-08-14T04:00:14;11.20;;;5.17;;
32094;SDS011;18608;53.688;10.748;2022-08-14T04:02:41;6.70;;;4.87;;
32094;SDS011;18608;53.688;10.748;2022-08-14T04:05:07;8.10;;;5.57;;
32094;SDS011;18608;53.688;10.748;2022-08-14T04:07:34;7.77;;;6.13;;
32094;SDS011;18608;53.688;10.748;2022-08-14T04:10:03;9.60;;;5.27;;
32094;SDS011;18608;53.688;10.748;2022-08-14T04:12:30;8.17;;;5.60;;
32094;SDS011;18608;53.688;10.748;2022-08-14T04:14:56;8.97;;;5.63;;
32094;SDS011;18608;53.688;10.748;2022-08-14T04:17:22;5.40;;;4.83;;
32094;SDS011;18608;53.688;10.748;2022-08-14T04:19:48;10.43;;;5.53;;
32094;SDS011;18608;53.688;10.748;2022-08-14T04:22:13;8.67;;;5.90;;
32094;SDS011;18608;53.688;10.748;2022-08-14T04:24:39;8.37;;;4.70;;
32094;SDS011;18608;53.688;10.748;2022-08-14T04:27:08;6.00;;;5.17;;
32094;SDS011;18608;53.688;10.748;2022-08-14T04:29:39;10.27;;;4.90;;
32094;SDS011;18608;53.688;10.748;2022-08-14T04:32:06;5.20;;;4.70;;
32094;SDS011;18608;53.688;10.748;2022-08-14T04:34:34;6.20;;;5.57;;
32094;SDS011;18608;53.688;10.748;2022-08-14T04:37:04;10.47;;;5.70;;
32094;SDS011;18608;53.688;10.748;2022-08-14T04:39:49;9.63;;;5.33;;
32094;SDS011;18608;53.688;10.748;2022-08-14T04:42:33;6.70;;;4.87;;
32094;SDS011;18608;53.688;10.748;2022-08-14T04:45:18;9.60;;;5.10;;
32094;SDS011;18608;53.688;10.748;2022-08-14T04:47:45;6.20;;;5.60;;
32094;SDS011;18608;53.688;10.748;2022-08-14T04:50:29;11.00;;;4.70;;
32094;SDS011;18608;53.688;10.748;2022-08-14T04:52:55;7.23;;;4.90;;
32094;SDS011;18608;53.688;10.748;2022-08-14T04:55:21;8.17;;;5.30;;
32094;SDS011;18608;53.688;10.748;2022-08-14T04:57:47;6.47;;;4.97;;
32094;SDS011;18608;53.688;10.748;2022-08-14T05:00:13;8.80;;;5.10;;
32094;SDS011;18608;53.688;10.748;2022-08-14T05:02:39;5.63;;;4.60;;
32094;SDS011;18608;53.688;10.748;2022-08-14T05:05:05;5.13;;;4.73;;
32094;SDS011;18608;53.688;10.748;2022-08-14T05:07:32;4.63;;;4.33;;
32094;SDS011;18608;53.688;10.748;2022-08-14T05:09:58;8.27;;;5.83;;
32094;SDS011;18608;53.688;10.748;2022-08-14T05:12:25;12.93;;;5.13;;
32094;SDS011;18608;53.688;10.748;2022-08-14T05:14:52;6.83;;;4.50;;
32094;SDS011;18608;53.688;10.748;2022-08-14T05:17:18;6.07;;;5.23;;
32094;SDS011;18608;53.688;10.748;2022-08-14T05:19:45;5.67;;;4.20;;
32094;SDS011;18608;53.688;10.748;2022-08-14T05:22:11;5.20;;;4.70;;
32094;SDS011;18608;53.688;10.748;2022-08-14T05:24:37;4.63;;;4.30;;
32094;SDS011;18608;53.688;10.748;2022-08-14T05:27:04;9.10;;;4.70;;
32094;SDS011;18608;53.688;10.748;2022-08-14T05:29:30;7.03;;;4.77;;
32094;SDS011;18608;53.688;10.748;2022-08-14T05:31:56;10.20;;;5.07;;
32094;SDS011;18608;53.688;10.748;2022-08-14T05:34:22;4.27;;;3.97;;
32094;SDS011;18608;53.688;10.748;2022-08-14T05:36:54;6.43;;;4.90;;
32094;SDS011;18608;53.688;10.748;2022-08-14T05:39:21;9.53;;;4.90;;
32094;SDS011;18608;53.688;10.748;2022-08-14T05:41:47;7.70;;;4.10;;
32094;SDS011;18608;53.688;10.748;2022-08-14T05:44:14;5.47;;;4.57;;
32094;SDS011;18608;53.688;10.748;2022-08-14T05:46:40;7.87;;;4.40;;
32094;SDS011;18608;53.688;10.748;2022-08-14T05:49:06;6.33;;;4.70;;
32094;SDS011;18608;53.688;10.748;2022-08-14T05:51:32;6.37;;;5.10;;
32094;SDS011;18608;53.688;10.748;2022-08-14T05:53:58;11.20;;;4.63;;
32094;SDS011;18608;53.688;10.748;2022-08-14T05:56:24;5.83;;;4.23;;
32094;SDS011;18608;53.688;10.748;2022-08-14T05:58:51;5.20;;;4.33;;
32094;SDS011;18608;53.688;10.748;2022-08-14T06:01:17;13.00;;;7.10;;
32094;SDS011;18608;53.688;10.748;2022-08-14T06:03:43;8.30;;;5.30;;
32094;SDS011;18608;53.688;10.748;2022-08-14T06:06:09;9.17;;;4.50;;
32094;SDS011;18608;53.688;10.748;2022-08-14T06:08:35;8.83;;;4.83;;
32094;SDS011;18608;53.688;10.748;2022-08-14T06:11:03;5.23;;;4.27;;
32094;SDS011;18608;53.688;10.748;2022-08-14T06:13:32;4.20;;;3.90;;
32094;SDS011;18608;53.688;10.748;2022-08-14T06:15:59;14.97;;;7.00;;
32094;SDS011;18608;53.688;10.748;2022-08-14T06:18:24;5.20;;;4.20;;
32094;SDS011;18608;53.688;10.748;2022-08-14T06:20:50;9.60;;;5.00;;
32094;SDS011;18608;53.688;10.748;2022-08-14T06:23:16;4.57;;;4.17;;
32094;SDS011;18608;53.688;10.748;2022-08-14T06:25:42;5.33;;;4.87;;
32094;SDS011;18608;53.688;10.748;2022-08-14T06:28:14;4.67;;;4.03;;
32094;SDS011;18608;53.688;10.748;2022-08-14T06:30:44;4.57;;;4.17;;
32094;SDS011;18608;53.688;10.748;2022-08-14T06:33:11;4.97;;;3.83;;
32094;SDS011;18608;53.688;10.748;2022-08-14T06:35:37;3.30;;;3.10;;
32094;SDS011;18608;53.688;10.748;2022-08-14T06:38:03;8.40;;;4.00;;
32094;SDS011;18608;53.688;10.748;2022-08-14T06:40:29;5.20;;;4.70;;
32094;SDS011;18608;53.688;10.748;2022-08-14T06:42:58;5.67;;;3.97;;
32094;SDS011;18608;53.688;10.748;2022-08-14T06:45:28;7.20;;;4.83;;
32094;SDS011;18608;53.688;10.748;2022-08-14T06:47:54;9.03;;;4.00;;
32094;SDS011;18608;53.688;10.748;2022-08-14T06:50:21;5.63;;;3.37;;
32094;SDS011;18608;53.688;10.748;2022-08-14T06:52:47;4.83;;;3.67;;
32094;SDS011;18608;53.688;10.748;2022-08-14T06:55:14;3.80;;;3.50;;
32094;SDS011;18608;53.688;10.748;2022-08-14T06:57:43;6.53;;;3.90;;
32094;SDS011;18608;53.688;10.748;2022-08-14T07:00:14;7.60;;;4.20;;
32094;SDS011;18608;53.688;10.748;2022-08-14T07:02:50;9.40;;;4.00;;
32094;SDS011;18608;53.688;10.748;2022-08-14T07:05:35;4.50;;;4.10;;
32094;SDS011;18608;53.688;10.748;2022-08-14T07:08:26;7.17;;;4.10;;
32094;SDS011;18608;53.688;10.748;2022-08-14T07:10:57;4.27;;;3.87;;
32094;SDS011;18608;53.688;10.748;2022-08-14T07:13:24;4.90;;;3.43;;
32094;SDS011;18608;53.688;10.748;2022-08-14T07:15:51;5.00;;;4.50;;
32094;SDS011;18608;53.688;10.748;2022-08-14T07:18:18;4.33;;;3.93;;
32094;SDS011;18608;53.688;10.748;2022-08-14T07:20:49;11.10;;;3.40;;
32094;SDS011;18608;53.688;10.748;2022-08-14T07:23:15;7.90;;;5.13;;
32094;SDS011;18608;53.688;10.748;2022-08-14T07:25:42;4.47;;;3.87;;
32094;SDS011;18608;53.688;10.748;2022-08-14T07:28:12;4.47;;;4.10;;
32094;SDS011;18608;53.688;10.748;2022-08-14T07:30:40;5.93;;;4.30;;
32094;SDS011;18608;53.688;10.748;2022-08-14T07:33:07;6.80;;;4.20;;
32094;SDS011;18608;53.688;10.748;2022-08-14T07:35:33;6.43;;;3.63;;
32094;SDS011;18608;53.688;10.748;2022-08-14T07:38:00;5.47;;;3.50;;
32094;SDS011;18608;53.688;10.748;2022-08-14T07:40:26;7.10;;;4.00;;
32094;SDS011;18608;53.688;10.748;2022-08-14T07:42:52;6.50;;;5.00;;
32094;SDS011;18608;53.688;10.748;2022-08-14T07:45:18;9.20;;;4.40;;
32094;SDS011;18608;53.688;10.748;2022-08-14T07:47:44;15.40;;;4.37;;
32094;SDS011;18608;53.688;10.748;2022-08-14T07:50:14;7.03;;;4.37;;
32094;SDS011;18608;53.688;10.748;2022-08-14T07:52:42;8.33;;;4.67;;
32094;SDS011;18608;53.688;10.748;2022-08-14T07:55:08;6.57;;;3.97;;
32094;SDS011;18608;53.688;10.748;2022-08-14T07:57:37;7.67;;;4.40;;
32094;SDS011;18608;53.688;10.748;2022-08-14T08:00:07;7.20;;;4.33;;
32094;SDS011;18608;53.688;10.748;2022-08-14T08:02:36;5.67;;;4.03;;
32094;SDS011;18608;53.688;10.748;2022-08-14T08:05:07;16.80;;;4.63;;
32094;SDS011;18608;53.688;10.748;2022-08-14T08:07:35;5.90;;;3.90;;
32094;SDS011;18608;53.688;10.748;2022-08-14T08:10:09;4.67;;;3.90;;
32094;SDS011;18608;53.688;10.748;2022-08-14T08:13:05;8.23;;;4.57;;
32094;SDS011;18608;53.688;10.748;2022-08-14T08:15:40;10.13;;;4.10;;
32094;SDS011;18608;53.688;10.748;2022-08-14T08:18:08;5.53;;;5.00;;
32094;SDS011;18608;53.688;10.748;2022-08-14T08:20:36;9.00;;;4.40;;
32094;SDS011;18608;53.688;10.748;2022-08-14T08:23:05;9.90;;;4.83;;
32094;SDS011;18608;53.688;10.748;2022-08-14T08:25:36;8.60;;;4.47;;
32094;SDS011;18608;53.688;10.748;2022-08-14T08:30:29;16.30;;;5.70;;
32094;SDS011;18608;53.688;10.748;2022-08-14T08:32:57;8.77;;;5.50;;
32094;SDS011;18608;53.688;10.748;2022-08-14T08:35:25;10.70;;;5.00;;
32094;SDS011;18608;53.688;10.748;2022-08-14T08:38:16;13.90;;;5.50;;
32094;SDS011;18608;53.688;10.748;2022-08-14T08:40:44;6.97;;;5.00;;
32094;SDS011;18608;53.688;10.748;2022-08-14T08:43:23;9.20;;;4.93;;
32094;SDS011;18608;53.688;10.748;2022-08-14T08:48:25;9.73;;;5.23;;
32094;SDS011;18608;53.688;10.748;2022-08-14T08:50:59;14.73;;;5.63;;
32094;SDS011;18608;53.688;10.748;2022-08-14T08:53:32;5.80;;;4.93;;
32094;SDS011;18608;53.688;10.748;2022-08-14T08:55:59;7.80;;;4.60;;
32094;SDS011;18608;53.688;10.748;2022-08-14T08:58:26;9.13;;;4.90;;
32094;SDS011;18608;53.688;10.748;2022-08-14T09:00:53;5.60;;;4.50;;
32094;SDS011;18608;53.688;10.748;2022-08-14T09:03:23;6.93;;;4.53;;
32094;SDS011;18608;53.688;10.748;2022-08-14T09:08:16;5.70;;;4.73;;
32094;SDS011;18608;53.688;10.748;2022-08-14T09:10:44;6.13;;;5.00;;
32094;SDS011;18608;53.688;10.748;2022-08-14T09:13:11;4.77;;;4.33;;
32094;SDS011;18608;53.688;10.748;2022-08-14T09:15:39;6.87;;;4.60;;
32094;SDS011;18608;53.688;10.748;2022-08-14T09:18:06;11.57;;;4.83;;
32094;SDS011;18608;53.688;10.748;2022-08-14T09:20:32;11.63;;;4.47;;
32094;SDS011;18608;53.688;10.748;2022-08-14T09:22:59;6.83;;;4.10;;
32094;SDS011;18608;53.688;10.748;2022-08-14T09:25:25;9.00;;;5.37;;
32094;SDS011;18608;53.688;10.748;2022-08-14T09:27:50;5.90;;;4.97;;
32094;SDS011;18608;53.688;10.748;2022-08-14T09:30:16;6.10;;;4.83;;
32094;SDS011;18608;53.688;10.748;2022-08-14T09:33:31;9.33;;;5.33;;
32094;SDS011;18608;53.688;10.748;2022-08-14T09:41:12;9.43;;;5.10;;
32094;SDS011;18608;53.688;10.748;2022-08-14T09:44:05;8.63;;;6.00;;
32094;SDS011;18608;53.688;10.748;2022-08-14T09:46:52;10.60;;;5.10;;
32094;SDS011;18608;53.688;10.748;2022-08-14T09:49:28;15.73;;;5.43;;
32094;SDS011;18608;53.688;10.748;2022-08-14T09:52:05;5.27;;;4.83;;
32094;SDS011;18608;53.688;10.748;2022-08-14T09:54:41;7.07;;;5.33;;
32094;SDS011;18608;53.688;10.748;2022-08-14T09:57:23;6.33;;;4.43;;
32094;SDS011;18608;53.688;10.748;2022-08-14T09:59:50;9.20;;;5.90;;
32094;SDS011;18608;53.688;10.748;2022-08-14T10:02:26;7.93;;;5.47;;
32094;SDS011;18608;53.688;10.748;2022-08-14T10:04:58;8.63;;;5.53;;
32094;SDS011;18608;53.688;10.748;2022-08-14T10:07:31;10.77;;;5.53;;
32094;SDS011;18608;53.688;10.748;2022-08-14T10:09:58;11.73;;;5.00;;
32094;SDS011;18608;53.688;10.748;2022-08-14T10:12:25;7.53;;;5.57;;
32094;SDS011;18608;53.688;10.748;2022-08-14T10:14:54;8.83;;;5.30;;
32094;SDS011;18608;53.688;10.748;2022-08-14T10:17:21;20.10;;;5.07;;
32094;SDS011;18608;53.688;10.748;2022-08-14T10:19:51;6.67;;;5.60;;
32094;SDS011;18608;53.688;10.748;2022-08-14T10:22:23;8.77;;;5.93;;
32094;SDS011;18608;53.688;10.748;2022-08-14T10:24:54;7.60;;;4.80;;
32094;SDS011;18608;53.688;10.748;2022-08-14T10:27:21;9.57;;;5.90;;
32094;SDS011;18608;53.688;10.748;2022-08-14T10:29:49;5.40;;;4.93;;
32094;SDS011;18608;53.688;10.748;2022-08-14T10:32:16;6.10;;;5.27;;
32094;SDS011;18608;53.688;10.748;2022-08-14T10:34:42;6.37;;;5.80;;
32094;SDS011;18608;53.688;10.748;2022-08-14T10:37:10;5.93;;;5.43;;
32094;SDS011;18608;53.688;10.748;2022-08-14T10:39:38;13.27;;;6.40;;
32094;SDS011;18608;53.688;10.748;2022-08-14T10:44:32;6.17;;;5.40;;
32094;SDS011;18608;53.688;10.748;2022-08-14T10:47:03;7.27;;;4.77;;
32094;SDS011;18608;53.688;10.748;2022-08-14T10:49:43;11.00;;;5.60;;
32094;SDS011;18608;53.688;10.748;2022-08-14T10:52:22;6.00;;;5.33;;
32094;SDS011;18608;53.688;10.748;2022-08-14T10:55:03;8.83;;;5.50;;
32094;SDS011;18608;53.688;10.748;2022-08-14T10:57:34;6.50;;;5.90;;
32094;SDS011;18608;53.688;10.748;2022-08-14T11:00:13;5.93;;;5.53;;
32094;SDS011;18608;53.688;10.748;2022-08-14T11:02:41;7.10;;;6.40;;
32094;SDS011;18608;53.688;10.748;2022-08-14T11:05:11;6.00;;;5.40;;
32094;SDS011;18608;53.688;10.748;2022-08-14T11:07:53;17.03;;;6.73;;
32094;SDS011;18608;53.688;10.748;2022-08-14T11:10:22;8.83;;;5.50;;
32094;SDS011;18608;53.688;10.748;2022-08-14T11:12:51;7.23;;;6.63;;
32094;SDS011;18608;53.688;10.748;2022-08-14T11:15:24;6.03;;;5.43;;
32094;SDS011;18608;53.688;10.748;2022-08-14T11:17:51;17.30;;;5.97;;
32094;SDS011;18608;53.688;10.748;2022-08-14T11:20:19;8.70;;;6.23;;
32094;SDS011;18608;53.688;10.748;2022-08-14T11:22:46;6.70;;;5.60;;
32094;SDS011;18608;53.688;10.748;2022-08-14T11:25:16;6.70;;;6.00;;
32094;SDS011;18608;53.688;10.748;2022-08-14T11:27:43;8.77;;;6.27;;
32094;SDS011;18608;53.688;10.748;2022-08-14T11:30:11;6.40;;;5.93;;
32094;SDS011;18608;53.688;10.748;2022-08-14T11:32:45;14.03;;;5.70;;
32094;SDS011;18608;53.688;10.748;2022-08-14T11:35:18;9.20;;;6.40;;
32094;SDS011;18608;53.688;10.748;2022-08-14T11:37:58;7.80;;;6.23;;
32094;SDS011;18608;53.688;10.748;2022-08-14T11:40:27;10.43;;;6.70;;
32094;SDS011;18608;53.688;10.748;2022-08-14T11:42:54;14.53;;;5.90;;
32094;SDS011;18608;53.688;10.748;2022-08-14T11:45:22;11.90;;;5.97;;
32094;SDS011;18608;53.688;10.748;2022-08-14T11:47:49;12.07;;;5.90;;
32094;SDS011;18608;53.688;10.748;2022-08-14T11:50:20;11.17;;;5.80;;
32094;SDS011;18608;53.688;10.748;2022-08-14T11:52:48;6.70;;;6.10;;
32094;SDS011;18608;53.688;10.748;2022-08-14T11:55:14;6.00;;;5.57;;
32094;SDS011;18608;53.688;10.748;2022-08-14T11:57:43;7.67;;;6.13;;
32094;SDS011;18608;53.688;10.748;2022-08-14T12:00:13;6.60;;;6.10;;
32094;SDS011;18608;53.688;10.748;2022-08-14T12:02:53;5.63;;;5.23;;
32094;SDS011;18608;53.688;10.748;2022-08-14T12:05:29;7.47;;;6.37;;
32094;SDS011;18608;53.688;10.748;2022-08-14T12:07:57;8.63;;;6.70;;
32094;SDS011;18608;53.688;10.748;2022-08-14T12:10:23;7.57;;;5.33;;
32094;SDS011;18608;53.688;10.748;2022-08-14T12:12:49;11.43;;;7.37;;
32094;SDS011;18608;53.688;10.748;2022-08-14T12:15:27;7.47;;;6.70;;
32094;SDS011;18608;53.688;10.748;2022-08-14T12:17:54;9.13;;;6.33;;
32094;SDS011;18608;53.688;10.748;2022-08-14T12:20:27;7.47;;;6.80;;
32094;SDS011;18608;53.688;10.748;2022-08-14T12:22:57;12.30;;;6.40;;
32094;SDS011;18608;53.688;10.748;2022-08-14T12:25:24;9.80;;;5.90;;
32094;SDS011;18608;53.688;10.748;2022-08-14T12:27:51;6.37;;;5.80;;
32094;SDS011;18608;53.688;10.748;2022-08-14T12:30:26;12.60;;;6.20;;
32094;SDS011;18608;53.688;10.748;2022-08-14T12:32:52;6.50;;;5.90;;
32094;SDS011;18608;53.688;10.748;2022-08-14T12:35:19;7.77;;;7.10;;
32094;SDS011;18608;53.688;10.748;2022-08-14T12:37:48;9.27;;;7.20;;
32094;SDS011;18608;53.688;10.748;2022-08-14T12:40:16;7.60;;;6.90;;
32094;SDS011;18608;53.688;10.748;2022-08-14T12:42:43;9.57;;;6.40;;
32094;SDS011;18608;53.688;10.748;2022-08-14T12:45:10;8.63;;;6.90;;
32094;SDS011;18608;53.688;10.748;2022-08-14T12:47:40;6.60;;;6.00;;
32094;SDS011;18608;53.688;10.748;2022-08-14T12:50:07;9.60;;;6.37;;
32094;SDS011;18608;53.688;10.748;2022-08-14T12:55:05;6.10;;;5.60;;
32094;SDS011;18608;53.688;10.748;2022-08-14T12:57:39;9.13;;;6.63;;
32094;SDS011;18608;53.688;10.748;2022-08-14T13:02:41;8.40;;;6.23;;
32094;SDS011;18608;53.688;10.748;2022-08-14T13:05:08;6.80;;;6.10;;
32094;SDS011;18608;53.688;10.748;2022-08-14T13:07:36;6.87;;;6.03;;
32094;SDS011;18608;53.688;10.748;2022-08-14T13:10:04;9.50;;;6.63;;
32094;SDS011;18608;53.688;10.748;2022-08-14T13:12:30;7.73;;;5.83;;
32094;SDS011;18608;53.688;10.748;2022-08-14T13:14:57;7.03;;;5.93;;
32094;SDS011;18608;53.688;10.748;2022-08-14T13:17:24;7.27;;;6.07;;
32094;SDS011;18608;53.688;10.748;2022-08-14T13:19:51;14.20;;;5.93;;
32094;SDS011;18608;53.688;10.748;2022-08-14T13:22:23;6.30;;;5.70;;
32094;SDS011;18608;53.688;10.748;2022-08-14T13:24:50;6.80;;;6.20;;
32094;SDS011;18608;53.688;10.748;2022-08-14T13:27:18;10.67;;;6.40;;
32094;SDS011;18608;53.688;10.748;2022-08-14T13:29:51;6.83;;;6.33;;
32094;SDS011;18608;53.688;10.748;2022-08-14T13:32:23;6.93;;;5.83;;
32094;SDS011;18608;53.688;10.748;2022-08-14T13:34:49;14.57;;;6.67;;
32094;SDS011;18608;53.688;10.748;2022-08-14T13:37:16;9.13;;;6.43;;
32094;SDS011;18608;53.688;10.748;2022-08-14T13:39:49;8.20;;;6.67;;
32094;SDS011;18608;53.688;10.748;2022-08-14T13:42:19;6.20;;;5.60;;
32094;SDS011;18608;53.688;10.748;2022-08-14T13:44:50;6.77;;;6.17;;
32094;SDS011;18608;53.688;10.748;2022-08-14T13:47:17;8.87;;;7.17;;
32094;SDS011;18608;53.688;10.748;2022-08-14T13:49:47;8.83;;;5.73;;
32094;SDS011;18608;53.688;10.748;2022-08-14T13:52:15;7.23;;;6.50;;
32094;SDS011;18608;53.688;10.748;2022-08-14T13:54:46;7.87;;;6.47;;
32094;SDS011;18608;53.688;10.748;2022-08-14T13:57:15;10.07;;;6.23;;
32094;SDS011;18608;53.688;10.748;2022-08-14T13:59:48;7.57;;;6.77;;
32094;SDS011;18608;53.688;10.748;2022-08-14T14:02:15;7.87;;;6.43;;
32094;SDS011;18608;53.688;10.748;2022-08-14T14:04:43;8.17;;;6.23;;
32094;SDS011;18608;53.688;10.748;2022-08-14T14:07:11;7.40;;;6.17;;
32094;SDS011;18608;53.688;10.748;2022-08-14T14:09:41;8.00;;;6.20;;
32094;SDS011;18608;53.688;10.748;2022-08-14T14:12:11;8.47;;;7.27;;
32094;SDS011;18608;53.688;10.748;2022-08-14T14:14:39;7.87;;;6.27;;
32094;SDS011;18608;53.688;10.748;2022-08-14T14:17:08;8.40;;;6.10;;
32094;SDS011;18608;53.688;10.748;2022-08-14T14:19:42;8.40;;;6.20;;
32094;SDS011;18608;53.688;10.748;2022-08-14T14:22:11;7.03;;;6.30;;
32094;SDS011;18608;53.688;10.748;2022-08-14T14:24:40;6.93;;;6.30;;
32094;SDS011;18608;53.688;10.748;2022-08-14T14:27:06;6.60;;;6.00;;
32094;SDS011;18608;53.688;10.748;2022-08-14T14:29:33;6.53;;;6.00;;
32094;SDS011;18608;53.688;10.748;2022-08-14T14:32:01;7.93;;;7.23;;
32094;SDS011;18608;53.688;10.748;2022-08-14T14:34:29;10.83;;;6.20;;
32094;SDS011;18608;53.688;10.748;2022-08-14T14:36:57;10.00;;;5.87;;
32094;SDS011;18608;53.688;10.748;2022-08-14T14:39:27;8.63;;;6.47;;
32094;SDS011;18608;53.688;10.748;2022-08-14T14:41:54;8.57;;;6.30;;
32094;SDS011;18608;53.688;10.748;2022-08-14T14:44:22;6.40;;;5.33;;
32094;SDS011;18608;53.688;10.748;2022-08-14T14:46:51;12.70;;;7.00;;
32094;SDS011;18608;53.688;10.748;2022-08-14T14:49:18;6.50;;;5.90;;
32094;SDS011;18608;53.688;10.748;2022-08-14T14:51:48;15.03;;;6.40;;
32094;SDS011;18608;53.688;10.748;2022-08-14T14:54:15;8.67;;;6.10;;
32094;SDS011;18608;53.688;10.748;2022-08-14T14:56:42;7.80;;;5.90;;
32094;SDS011;18608;53.688;10.748;2022-08-14T14:59:09;8.33;;;6.23;;
32094;SDS011;18608;53.688;10.748;2022-08-14T15:01:36;6.73;;;6.13;;
32094;SDS011;18608;53.688;10.748;2022-08-14T15:04:02;9.00;;;7.03;;